createdAt,value
2023-04-01T00:00:27.189Z,99145.84
2023-04-01T00:02:54.187Z,99140.31
2023-04-01T00:05:21.625Z,99150.16
2023-04-01T00:07:48.922Z,99143.88
2023-04-01T00:10:16.047Z,99147.41
2023-04-01T00:12:42.939Z,99152.13
2023-04-01T00:15:11.636Z,99151.72
2023-04-01T00:17:39.054Z,99152.13
2023-04-01T00:20:09.079Z,99156.06
2023-04-01T00:22:36.304Z,99154.88
2023-04-01T00:25:04.333Z,99156.06
2023-04-01T00:27:31.385Z,99150.13
2023-04-01T00:29:58.870Z,99146.19
2023-04-01T00:32:28.344Z,99154.47
2023-04-01T00:34:55.369Z,99155.25
2023-04-01T00:37:22.305Z,99150.94
2023-04-01T00:39:49.660Z,99148.16
2023-04-01T00:42:17.214Z,99151.72
2023-04-01T00:44:46.192Z,99149.38
2023-04-01T00:47:13.052Z,99155.66
2023-04-01T00:49:43.511Z,99156.84
2023-04-01T00:52:13.942Z,99152.94
2023-04-01T00:54:43.770Z,99148.59
2023-04-01T00:57:20.020Z,99150.94
2023-04-01T00:59:53.836Z,99156.84
2023-04-01T01:02:21.767Z,99151.34
2023-04-01T01:04:51.467Z,99152.94
2023-04-01T01:07:27.425Z,99153.72
2023-04-01T01:10:06.561Z,99156.06
2023-04-01T01:12:46.360Z,99150.97
2023-04-01T01:15:19.994Z,99158.44
2023-04-01T01:18:13.061Z,99160.38
2023-04-01T01:21:08.441Z,99156.44
2023-04-01T01:23:47.559Z,99161.56
2023-04-01T01:26:52.559Z,99167.06
2023-04-01T01:29:42.547Z,99165.09
2023-04-01T01:32:12.183Z,99163.53
2023-04-01T01:34:49.618Z,99169.03
2023-04-01T01:37:20.188Z,99174.94
2023-04-01T01:39:51.426Z,99170.19
2023-04-01T01:42:21.696Z,99178.88
2023-04-01T01:44:51.698Z,99173.38
2023-04-01T01:47:21.449Z,99178.09
2023-04-01T01:49:50.402Z,99173.38
2023-04-01T01:52:19.370Z,99178.88
2023-04-01T01:54:55.215Z,99178.88
2023-04-01T01:57:30.079Z,99178.09
2023-04-01T02:00:14.006Z,99182.41
2023-04-01T02:02:45.858Z,99184.38
2023-04-01T02:05:28.329Z,99187.94
2023-04-01T02:08:13.017Z,99191.06
2023-04-01T02:10:56.978Z,99199.31
2023-04-01T02:13:49.198Z,99201.28
2023-04-01T02:16:33.243Z,99195.41
2023-04-01T02:19:01.298Z,99202.09
2023-04-01T02:21:33.391Z,99205.63
2023-04-01T02:24:02.907Z,99206.78
2023-04-01T02:26:30.444Z,99216.66
2023-04-01T02:29:00.955Z,99212.31
2023-04-01T02:31:28.441Z,99211.94
2023-04-01T02:33:56.087Z,99209.19
2023-04-01T02:36:23.116Z,99216.66
2023-04-01T02:38:51.978Z,99217.44
2023-04-01T02:41:19.099Z,99218.59
2023-04-01T02:43:46.093Z,99223.75
2023-04-01T02:46:13.823Z,99218.59
2023-04-01T02:48:40.822Z,99219.03
2023-04-01T02:51:07.817Z,99228.06
2023-04-01T02:53:34.773Z,99223.31
2023-04-01T02:56:02.037Z,99231.22
2023-04-01T02:58:29.089Z,99236.31
2023-04-01T03:00:56.670Z,99233.97
2023-04-01T03:03:24.018Z,99242.22
2023-04-01T03:05:51.077Z,99245.78
2023-04-01T03:08:19.669Z,99242.22
2023-04-01T03:10:46.735Z,99244.97
2023-04-01T03:13:13.613Z,99249.31
2023-04-01T03:15:40.707Z,99246.16
2023-04-01T03:18:07.667Z,99246.56
2023-04-01T03:20:35.045Z,99259.16
2023-04-01T03:23:02.144Z,99264.66
2023-04-01T03:25:29.841Z,99259.53
2023-04-01T03:27:56.964Z,99267.41
2023-04-01T03:30:24.082Z,99265.84
2023-04-01T03:32:51.577Z,99265.47
2023-04-01T03:35:18.540Z,99255.56
2023-04-01T03:37:46.614Z,99285.13
2023-04-01T03:40:13.634Z,99274.47
2023-04-01T03:42:40.751Z,99287.06
2023-04-01T03:45:08.347Z,99283.91
2023-04-01T03:47:35.515Z,99283.91
2023-04-01T03:50:03.087Z,99285.88
2023-04-01T03:52:30.467Z,99288.63
2023-04-01T03:54:57.540Z,99291.38
2023-04-01T03:57:25.006Z,99292.97
2023-04-01T03:59:53.275Z,99298.06
2023-04-01T04:02:20.816Z,99299.63
2023-04-01T04:04:48.037Z,99300.81
2023-04-01T04:07:15.437Z,99302.41
2023-04-01T04:10:08.790Z,99298.09
2023-04-01T04:12:36.787Z,99315.00
2023-04-01T04:15:04.185Z,99301.22
2023-04-01T04:17:31.101Z,99312.25
2023-04-01T04:19:58.242Z,99311.44
2023-04-01T04:22:25.244Z,99311.03
2023-04-01T04:24:52.167Z,99313.78
2023-04-01T04:27:19.491Z,99323.25
2023-04-01T04:29:58.832Z,99324.41
2023-04-01T04:32:26.242Z,99325.22
2023-04-01T04:34:53.666Z,99329.19
2023-04-01T04:37:20.782Z,99330.31
2023-04-01T04:39:47.817Z,99334.66
2023-04-01T04:42:14.776Z,99341.34
2023-04-01T04:44:42.250Z,99342.53
2023-04-01T04:47:09.280Z,99344.09
2023-04-01T04:49:36.928Z,99351.59
2023-04-01T04:52:08.264Z,99361.81
2023-04-01T04:54:35.459Z,99358.63
2023-04-01T04:57:04.675Z,99364.56
2023-04-01T04:59:38.032Z,99361.38
2023-04-01T05:02:19.502Z,99371.63
2023-04-01T05:04:47.989Z,99372.41
2023-04-01T05:07:15.137Z,99382.69
2023-04-01T05:09:42.457Z,99379.13
2023-04-01T05:12:10.256Z,99384.63
2023-04-01T05:15:08.452Z,99385.84
2023-04-01T05:17:35.741Z,99381.09
2023-04-01T05:20:04.652Z,99388.97
2023-04-01T05:22:31.504Z,99388.59
2023-04-01T05:24:58.596Z,99396.84
2023-04-01T05:27:26.125Z,99397.66
2023-04-01T05:29:53.149Z,99398.81
2023-04-01T05:32:42.658Z,99412.16
2023-04-01T05:35:11.037Z,99410.19
2023-04-01T05:37:38.185Z,99412.94
2023-04-01T05:40:06.724Z,99416.91
2023-04-01T05:42:36.646Z,99414.13
2023-04-01T05:45:04.881Z,99413.38
2023-04-01T05:48:00.757Z,99426.69
2023-04-01T05:50:31.132Z,99424.34
2023-04-01T05:52:58.158Z,99427.47
2023-04-01T05:55:25.331Z,99432.22
2023-04-01T05:57:52.341Z,99441.66
2023-04-01T06:00:21.088Z,99444.41
2023-04-01T06:02:49.039Z,99448.38
2023-04-01T06:05:24.715Z,99446.03
2023-04-01T06:08:00.450Z,99449.97
2023-04-01T06:11:14.683Z,99452.34
2023-04-01T06:14:19.999Z,99459.41
2023-04-01T06:16:54.119Z,99465.72
2023-04-01T06:19:32.842Z,99468.09
2023-04-01T06:22:19.167Z,99471.63
2023-04-01T06:25:25.040Z,99483.41
2023-04-01T06:28:26.950Z,99485.00
2023-04-01T06:30:57.337Z,99497.63
2023-04-01T06:33:53.748Z,99493.69
2023-04-01T06:36:59.986Z,99498.78
2023-04-01T06:39:32.844Z,99499.97
2023-04-01T06:42:03.162Z,99493.69
2023-04-01T06:45:07.469Z,99506.69
2023-04-01T06:48:17.951Z,99514.16
2023-04-01T06:51:18.409Z,99520.84
2023-04-01T06:54:17.515Z,99516.91
2023-04-01T06:57:19.350Z,99523.59
2023-04-01T06:59:46.819Z,99527.53
2023-04-01T07:02:31.523Z,99529.50
2023-04-01T07:04:59.484Z,99535.03
2023-04-01T07:07:39.620Z,99540.16
2023-04-01T07:10:21.208Z,99544.50
2023-04-01T07:13:25.321Z,99547.28
2023-04-01T07:16:05.619Z,99548.88
2023-04-01T07:18:50.600Z,99564.66
2023-04-01T07:21:37.272Z,99562.66
2023-04-01T07:24:34.752Z,99569.38
2023-04-01T07:27:10.904Z,99574.50
2023-04-01T07:29:39.651Z,99580.41
2023-04-01T07:32:18.214Z,99581.19
2023-04-01T07:35:00.263Z,99592.25
2023-04-01T07:38:06.149Z,99592.22
2023-04-01T07:40:51.355Z,99596.19
2023-04-01T07:43:38.576Z,99600.91
2023-04-01T07:46:45.914Z,99606.44
2023-04-01T07:49:22.830Z,99612.34
2023-04-01T07:52:02.897Z,99617.88
2023-04-01T07:54:51.020Z,99617.47
2023-04-01T07:57:24.587Z,99623.34
2023-04-01T08:00:52.358Z,99627.66
2023-04-01T08:03:37.799Z,99636.28
2023-04-01T08:06:15.485Z,99641.00
2023-04-01T08:09:02.565Z,99649.34
2023-04-01T08:12:17.386Z,99653.28
2023-04-01T08:15:18.585Z,99652.91
2023-04-01T08:18:56.502Z,99660.00
2023-04-01T08:21:33.680Z,99671.81
2023-04-01T08:24:11.596Z,99663.91
2023-04-01T08:26:46.384Z,99673.41
2023-04-01T08:29:22.675Z,99685.59
2023-04-01T08:31:56.227Z,99686.44
2023-04-01T08:34:31.900Z,99688.44
2023-04-01T08:37:09.216Z,99701.47
2023-04-01T08:39:45.575Z,99707.41
2023-04-01T08:42:43.322Z,99714.50
2023-04-01T08:45:36.213Z,99706.63
2023-04-01T08:48:35.391Z,99715.69
2023-04-01T08:51:48.556Z,99723.19
2023-04-01T08:54:47.573Z,99734.22
2023-04-01T08:57:43.447Z,99732.66
2023-04-01T09:00:44.465Z,99736.56
2023-04-01T09:03:36.845Z,99743.63
2023-04-01T09:06:07.263Z,99745.63
2023-04-01T09:08:52.794Z,99753.56
2023-04-01T09:11:34.738Z,99744.84
2023-04-01T09:14:34.387Z,99758.22
2023-04-01T09:17:52.623Z,99761.81
2023-04-01T09:20:47.083Z,99762.97
2023-04-01T09:23:17.027Z,99773.59
2023-04-01T09:26:04.899Z,99777.06
2023-04-01T09:28:44.138Z,99777.88
2023-04-01T09:31:41.795Z,99778.31
2023-04-01T09:34:44.251Z,99797.75
2023-04-01T09:37:20.991Z,99792.13
2023-04-01T09:40:15.129Z,99802.00
2023-04-01T09:43:14.830Z,99804.28
2023-04-01T09:45:52.660Z,99797.28
2023-04-01T09:48:31.738Z,99816.63
2023-04-01T09:51:03.665Z,99824.50
2023-04-01T09:53:39.641Z,99825.31
2023-04-01T09:56:34.361Z,99832.84
2023-04-01T09:59:22.699Z,99821.06
2023-04-01T10:02:33.547Z,99829.72
2023-04-01T10:05:29.049Z,99836.00
2023-04-01T10:08:17.627Z,99840.78
2023-04-01T10:11:03.483Z,99855.00
2023-04-01T10:14:03.184Z,99853.03
2023-04-01T10:17:04.238Z,99866.47
2023-04-01T10:20:02.370Z,99879.88
2023-04-01T10:23:12.316Z,99872.75
2023-04-01T10:25:51.411Z,99892.50
2023-04-01T10:28:50.836Z,99890.47
2023-04-01T10:32:31.266Z,99885.63
2023-04-01T10:35:17.479Z,99885.63
2023-04-01T10:37:51.846Z,99891.91
2023-04-01T10:40:36.256Z,99894.31
2023-04-01T10:44:16.074Z,99904.56
2023-04-01T10:47:09.488Z,99904.19
2023-04-01T10:49:47.811Z,99915.72
2023-04-01T10:52:18.092Z,99922.84
2023-04-01T10:55:33.463Z,99921.28
2023-04-01T10:58:41.849Z,99926.75
2023-04-01T11:02:11.904Z,99915.34
2023-04-01T11:05:03.635Z,99928.75
2023-04-01T11:08:40.038Z,99933.06
2023-04-01T11:11:35.855Z,99944.41
2023-04-01T11:14:30.700Z,99946.88
2023-04-01T11:17:00.794Z,99956.72
2023-04-01T11:19:49.455Z,99960.22
2023-04-01T11:22:51.682Z,99970.88
2023-04-01T11:25:49.027Z,99971.06
2023-04-01T11:28:56.847Z,99976.88
2023-04-01T11:31:55.609Z,99982.72
2023-04-01T11:35:11.050Z,99980.75
2023-04-01T11:38:15.256Z,99993.09
2023-04-01T11:41:23.026Z,100005.88
2023-04-01T11:44:18.596Z,100000.44
2023-04-01T11:47:30.517Z,100012.19
2023-04-01T11:50:12.812Z,100010.91
2023-04-01T11:53:03.053Z,100010.56
2023-04-01T11:55:32.762Z,100020.41
2023-04-01T11:58:44.895Z,100024.34
2023-04-01T12:01:31.677Z,100032.34
2023-04-01T12:04:26.156Z,100026.50
2023-04-01T12:06:59.586Z,100039.47
2023-04-01T12:09:41.439Z,100051.66
2023-04-01T12:12:17.199Z,100051.97
2023-04-01T12:14:47.224Z,100051.75
2023-04-01T12:17:26.401Z,100058.41
2023-04-01T12:20:16.755Z,100068.38
2023-04-01T12:23:02.134Z,100071.81
2023-04-01T12:25:35.037Z,100078.00
2023-04-01T12:28:24.856Z,100086.72
2023-04-01T12:31:16.252Z,100083.59
2023-04-01T12:33:49.395Z,100095.41
2023-04-01T12:36:50.761Z,100096.06
2023-04-01T12:39:50.855Z,100104.50
2023-04-01T12:42:42.300Z,100099.97
2023-04-01T12:45:31.729Z,100115.44
2023-04-01T12:48:17.734Z,100116.56
2023-04-01T12:51:06.226Z,100114.25
2023-04-01T12:54:11.959Z,100122.84
2023-04-01T12:57:00.746Z,100126.06
2023-04-01T12:59:33.726Z,100134.03
2023-04-01T13:02:09.637Z,100140.69
2023-04-01T13:04:53.664Z,100154.38
2023-04-01T13:07:44.247Z,100156.06
2023-04-01T13:10:40.335Z,100152.63
2023-04-01T13:13:26.047Z,100159.25
2023-04-01T13:16:18.521Z,100167.91
2023-04-01T13:18:57.374Z,100166.56
2023-04-01T13:21:52.501Z,100177.97
2023-04-01T13:24:32.277Z,100175.06
2023-04-01T13:27:27.195Z,100189.38
2023-04-01T13:30:02.843Z,100189.91
2023-04-01T13:32:43.275Z,100185.00
2023-04-01T13:35:26.085Z,100199.19
2023-04-01T13:38:13.421Z,100215.84
2023-04-01T13:41:14.490Z,100201.91
2023-04-01T13:44:00.202Z,100206.34
2023-04-01T13:46:27.042Z,100220.63
2023-04-01T13:49:42.505Z,100217.66
2023-04-01T13:52:47.236Z,100223.53
2023-04-01T13:55:29.610Z,100223.56
2023-04-01T13:58:21.175Z,100234.25
2023-04-01T14:01:06.567Z,100239.66
2023-04-01T14:03:43.757Z,100242.28
2023-04-01T14:06:27.627Z,100240.25
2023-04-01T14:09:19.133Z,100257.88
2023-04-01T14:12:20.413Z,100267.22
2023-04-01T14:14:54.312Z,100287.81
2023-04-01T14:17:39.843Z,100282.25
2023-04-01T14:20:23.463Z,100290.97
2023-04-01T14:23:04.360Z,100305.22
2023-04-01T14:26:03.750Z,100296.41
2023-04-01T14:28:46.837Z,100312.72
2023-04-01T14:31:25.014Z,100312.47
2023-04-01T14:34:01.120Z,100319.69
2023-04-01T14:37:02.556Z,100329.72
2023-04-01T14:40:00.878Z,100332.22
2023-04-01T14:42:28.997Z,100329.97
2023-04-01T14:45:29.653Z,100338.13
2023-04-01T14:48:18.561Z,100356.03
2023-04-01T14:50:53.296Z,100344.78
2023-04-01T14:53:25.976Z,100361.41
2023-04-01T14:55:58.587Z,100352.88
2023-04-01T14:58:43.013Z,100366.06
2023-04-01T15:01:36.113Z,100368.81
2023-04-01T15:04:33.798Z,100375.47
2023-04-01T15:07:19.331Z,100373.16
2023-04-01T15:10:03.691Z,100380.69
2023-04-01T15:12:45.878Z,100389.22
2023-04-01T15:15:19.307Z,100389.56
2023-04-01T15:18:00.393Z,100397.47
2023-04-01T15:20:48.396Z,100403.63
2023-04-01T15:23:41.341Z,100424.00
2023-04-01T15:26:45.092Z,100417.81
2023-04-01T15:29:27.150Z,100436.34
2023-04-01T15:32:15.492Z,100435.31
2023-04-01T15:35:00.358Z,100437.44
2023-04-01T15:37:55.465Z,100451.66
2023-04-01T15:40:29.595Z,100453.88
2023-04-01T15:43:26.878Z,100454.34
2023-04-01T15:46:20.859Z,100462.22
2023-04-01T15:49:46.515Z,100468.84
2023-04-01T15:52:24.177Z,100464.25
2023-04-01T15:55:08.768Z,100472.88
2023-04-01T15:57:38.750Z,100480.72
2023-04-01T16:00:29.527Z,100496.44
2023-04-01T16:03:20.201Z,100501.47
2023-04-01T16:05:54.953Z,100502.56
2023-04-01T16:08:33.686Z,100519.72
2023-04-01T16:11:30.216Z,100520.78
2023-04-01T16:14:27.726Z,100532.41
2023-04-01T16:17:21.950Z,100537.09
2023-04-01T16:19:48.973Z,100536.47
2023-04-01T16:22:39.457Z,100544.03
2023-04-01T16:25:18.610Z,100546.19
2023-04-01T16:27:52.530Z,100561.00
2023-04-01T16:30:44.946Z,100567.88
2023-04-01T16:33:41.506Z,100572.00
2023-04-01T16:36:30.470Z,100575.13
2023-04-01T16:39:28.673Z,100575.00
2023-04-01T16:42:07.384Z,100595.25
2023-04-01T16:44:48.626Z,100591.81
2023-04-01T16:47:21.139Z,100606.38
2023-04-01T16:49:55.099Z,100605.47
2023-04-01T16:52:44.410Z,100602.31
2023-04-01T16:55:19.875Z,100617.16
2023-04-01T16:57:59.370Z,100611.69
2023-04-01T17:00:31.825Z,100622.91
2023-04-01T17:03:11.814Z,100631.56
2023-04-01T17:06:06.961Z,100642.22
2023-04-01T17:08:56.767Z,100648.16
2023-04-01T17:11:32.692Z,100649.09
2023-04-01T17:14:11.035Z,100651.47
2023-04-01T17:16:43.715Z,100661.69
2023-04-01T17:19:34.930Z,100664.31
2023-04-01T17:22:23.224Z,100675.59
2023-04-01T17:25:06.523Z,100680.78
2023-04-01T17:27:55.239Z,100678.94
2023-04-01T17:30:33.434Z,100695.84
2023-04-01T17:33:22.230Z,100713.44
2023-04-01T17:35:49.425Z,100712.31
2023-04-01T17:38:25.306Z,100716.44
2023-04-01T17:41:21.567Z,100723.41
2023-04-01T17:44:28.044Z,100741.41
2023-04-01T17:47:12.510Z,100731.91
2023-04-01T17:50:21.743Z,100744.66
2023-04-01T17:53:05.233Z,100750.38
2023-04-01T17:55:48.302Z,100760.88
2023-04-01T17:58:29.543Z,100766.50
2023-04-01T18:01:25.612Z,100769.34
2023-04-01T18:04:06.372Z,100783.28
2023-04-01T18:06:57.784Z,100780.66
2023-04-01T18:09:46.027Z,100790.38
2023-04-01T18:12:37.406Z,100798.81
2023-04-01T18:15:34.983Z,100799.97
2023-04-01T18:18:39.388Z,100814.38
2023-04-01T18:21:42.241Z,100815.19
2023-04-01T18:24:16.589Z,100828.41
2023-04-01T18:26:48.077Z,100841.66
2023-04-01T18:29:20.230Z,100853.88
2023-04-01T18:31:52.848Z,100847.59
2023-04-01T18:34:58.724Z,100849.28
2023-04-01T18:37:40.192Z,100871.88
2023-04-01T18:40:35.430Z,100874.19
2023-04-01T18:43:41.016Z,100886.63
2023-04-01T18:46:19.635Z,100890.53
2023-04-01T18:48:49.733Z,100890.97
2023-04-01T18:52:10.296Z,100905.50
2023-04-01T18:55:01.774Z,100901.94
2023-04-01T18:57:51.388Z,100912.72
2023-04-01T19:00:33.771Z,100923.81
2023-04-01T19:03:19.603Z,100927.06
2023-04-01T19:05:51.417Z,100931.34
2023-04-01T19:08:27.274Z,100936.34
2023-04-01T19:11:06.334Z,100943.28
2023-04-01T19:14:06.640Z,100955.03
2023-04-01T19:17:05.045Z,100962.34
2023-04-01T19:19:40.964Z,100965.25
2023-04-01T19:22:32.496Z,100972.19
2023-04-01T19:25:24.062Z,100980.09
2023-04-01T19:28:01.075Z,100985.59
2023-04-01T19:30:40.309Z,100986.75
2023-04-01T19:33:24.368Z,100994.31
2023-04-01T19:36:14.177Z,101007.66
2023-04-01T19:38:53.647Z,101011.06
2023-04-01T19:41:36.290Z,101018.81
2023-04-01T19:44:17.401Z,101030.22
2023-04-01T19:47:05.399Z,101031.03
2023-04-01T19:49:47.952Z,101027.22
2023-04-01T19:52:30.179Z,101047.97
2023-04-01T19:55:07.096Z,101047.50
2023-04-01T19:57:54.568Z,101058.00
2023-04-01T20:00:35.061Z,101067.00
2023-04-01T20:03:22.890Z,101069.63
2023-04-01T20:06:05.841Z,101067.84
2023-04-01T20:08:39.010Z,101078.31
2023-04-01T20:11:29.087Z,101090.88
2023-04-01T20:14:06.645Z,101088.63
2023-04-01T20:16:48.845Z,101097.00
2023-04-01T20:19:27.771Z,101105.72
2023-04-01T20:21:59.456Z,101112.31
2023-04-01T20:24:43.104Z,101118.09
2023-04-01T20:27:19.549Z,101115.34
2023-04-01T20:30:27.738Z,101126.28
2023-04-01T20:33:08.437Z,101132.09
2023-04-01T20:36:02.781Z,101135.50
2023-04-01T20:38:45.528Z,101132.41
2023-04-01T20:41:32.909Z,101140.97
2023-04-01T20:44:15.360Z,101146.44
2023-04-01T20:47:08.297Z,101146.91
2023-04-01T20:50:04.647Z,101161.88
2023-04-01T20:52:43.667Z,101168.50
2023-04-01T20:55:13.739Z,101164.97
2023-04-01T20:57:52.577Z,101173.97
2023-04-01T21:00:52.844Z,101176.72
2023-04-01T21:03:47.555Z,101185.72
2023-04-01T21:06:30.747Z,101188.94
2023-04-01T21:09:24.671Z,101188.13
2023-04-01T21:12:06.382Z,101200.53
2023-04-01T21:14:59.440Z,101207.47
2023-04-01T21:17:56.135Z,101212.75
2023-04-01T21:20:59.989Z,101215.97
2023-04-01T21:23:29.441Z,101223.38
2023-04-01T21:26:34.898Z,101247.84
2023-04-01T21:29:16.612Z,101244.59
2023-04-01T21:32:08.282Z,101252.00
2023-04-01T21:34:58.778Z,101252.13
2023-04-01T21:38:06.089Z,101253.56
2023-04-01T21:40:57.706Z,101257.25
2023-04-01T21:43:38.968Z,101277.84
2023-04-01T21:46:40.165Z,101276.22
2023-04-01T21:49:08.101Z,101283.00
2023-04-01T21:51:52.472Z,101287.34
2023-04-01T21:54:35.277Z,101290.88
2023-04-01T21:57:20.806Z,101301.66
2023-04-01T22:00:15.684Z,101305.81
2023-04-01T22:03:26.770Z,101310.00
2023-04-01T22:06:03.819Z,101317.22
2023-04-01T22:08:59.695Z,101321.88
2023-04-01T22:11:46.267Z,101322.50
2023-04-01T22:14:21.206Z,101332.19
2023-04-01T22:16:55.130Z,101336.34
2023-04-01T22:19:40.457Z,101336.31
2023-04-01T22:22:19.794Z,101339.66
2023-04-01T22:24:49.605Z,101337.38
2023-04-01T22:27:29.721Z,101345.09
2023-04-01T22:30:22.436Z,101352.28
2023-04-01T22:33:06.283Z,101349.44
2023-04-01T22:35:51.469Z,101360.06
2023-04-01T22:38:36.664Z,101357.03
2023-04-01T22:41:03.749Z,101366.84
2023-04-01T22:43:36.370Z,101369.72
2023-04-01T22:46:35.879Z,101380.16
2023-04-01T22:49:24.925Z,101379.34
2023-04-01T22:52:30.234Z,101380.59
2023-04-01T22:55:05.307Z,101380.41
2023-04-01T22:57:46.249Z,101391.94
2023-04-01T23:00:23.878Z,101395.91
2023-04-01T23:03:28.430Z,101399.41
2023-04-01T23:05:58.286Z,101399.81
2023-04-01T23:08:41.826Z,101408.44
2023-04-01T23:11:18.997Z,101406.25
2023-04-01T23:13:53.834Z,101423.38
2023-04-01T23:16:36.848Z,101426.41
2023-04-01T23:19:19.377Z,101432.47
2023-04-01T23:21:53.444Z,101440.25
2023-04-01T23:24:34.888Z,101446.31
2023-04-01T23:27:20.859Z,101446.56
2023-04-01T23:29:48.019Z,101449.06
2023-04-01T23:32:20.442Z,101464.16
2023-04-01T23:34:51.180Z,101467.28
2023-04-01T23:37:20.318Z,101468.00
2023-04-01T23:39:50.118Z,101479.41
2023-04-01T23:42:26.637Z,101479.47
2023-04-01T23:44:59.333Z,101492.19
2023-04-01T23:47:32.762Z,101491.78
2023-04-01T23:50:05.081Z,101501.34
2023-04-01T23:52:37.400Z,101500.63
2023-04-01T23:55:15.641Z,101513.88
2023-04-01T23:57:42.830Z,101516.66
